Balsam, North Carolina
Current Conditions -  °F | °C
As of 7:09 AM on Saturday 20 Dec 2014 (Local Time) from KAVL Reporting Station
Light Rain Light Rain  
Wind Chill: 34°   Ceiling: 5500
Heat Index: 38°   Visibility: 10mi
Dew Point: 34°   Wind: 5mph
Humidity: 86%   Direction: 160°SSE
Pressure: 30.18"   Gusts: NA
Location:  35.43°N, 83.08°W
Report Text: KAVL 201209Z 16004KT 10SM -RA SCT026 OVC055 03/01 A3018 RMK AO2 RAB04 P0000 T00330011
Loading
Personal Weather Stations






























Interactive Weather Map New forecast layout! Learn more

10-Day Weather Forecast

Advertisements
Track Severe Weather on mobile